createdAt,value
2019-02-19T00:03:04.713Z,29.03
2019-02-19T00:08:14.628Z,29.30
2019-02-19T00:13:24.591Z,29.05
2019-02-19T00:18:37.394Z,32.93
2019-02-19T00:23:53.032Z,35.67
2019-02-19T00:29:03.853Z,35.13
2019-02-19T00:34:16.394Z,40.70
2019-02-19T00:39:30.022Z,35.53
2019-02-19T00:44:40.127Z,40.37
2019-02-19T00:49:49.531Z,46.07
2019-02-19T00:54:57.243Z,42.93
2019-02-19T01:00:08.917Z,44.40
2019-02-19T01:05:23.211Z,44.53
2019-02-19T01:10:38.541Z,43.13
2019-02-19T01:15:51.113Z,50.90
2019-02-19T01:21:01.055Z,46.50
2019-02-19T01:26:12.049Z,36.30
2019-02-19T01:31:25.672Z,37.23
2019-02-19T01:36:40.142Z,46.40
2019-02-19T01:41:47.498Z,37.97
2019-02-19T01:47:00.163Z,32.47
2019-02-19T01:52:11.788Z,35.08
2019-02-19T01:57:25.450Z,30.40
2019-02-19T02:02:38.634Z,33.03
2019-02-19T02:07:50.546Z,29.13
2019-02-19T02:13:01.551Z,29.43
2019-02-19T02:18:08.620Z,32.83
2019-02-19T02:23:19.513Z,36.77
2019-02-19T02:28:30.648Z,38.67
2019-02-19T02:33:40.836Z,36.27
2019-02-19T02:38:51.048Z,37.00
2019-02-19T02:43:58.394Z,37.33
2019-02-19T02:49:06.886Z,32.53
2019-02-19T02:54:16.837Z,38.42
2019-02-19T02:59:25.789Z,38.40
2019-02-19T03:04:36.771Z,35.97
2019-02-19T03:09:52.168Z,35.23
2019-02-19T03:15:05.738Z,32.63
2019-02-19T03:20:18.088Z,34.00
2019-02-19T03:25:33.085Z,33.38
2019-02-19T03:30:45.831Z,32.50
2019-02-19T03:35:56.332Z,32.03
2019-02-19T03:41:04.511Z,30.43
2019-02-19T03:46:13.483Z,24.93
2019-02-19T03:51:30.661Z,28.20
2019-02-19T03:56:45.225Z,26.63
2019-02-19T04:01:57.000Z,25.67
2019-02-19T04:07:12.754Z,25.77
2019-02-19T04:12:23.594Z,25.82
2019-02-19T04:17:37.516Z,27.93
2019-02-19T04:22:51.463Z,26.70
2019-02-19T04:28:02.376Z,22.73
2019-02-19T04:33:10.536Z,21.40
2019-02-19T04:38:18.617Z,28.03
2019-02-19T04:43:23.713Z,23.75
2019-02-19T04:48:36.781Z,27.10
2019-02-19T04:53:49.863Z,29.93
2019-02-19T04:58:57.706Z,30.10
2019-02-19T05:04:04.311Z,25.27
2019-02-19T05:09:15.181Z,22.97
2019-02-19T05:14:26.388Z,26.62
2019-02-19T05:19:40.101Z,27.00
2019-02-19T05:24:53.740Z,27.17
2019-02-19T05:30:04.613Z,27.27
2019-02-19T05:35:34.734Z,25.60
2019-02-19T05:40:43.031Z,32.10
2019-02-19T05:45:54.971Z,23.40
2019-02-19T05:51:05.068Z,23.20
2019-02-19T05:56:15.018Z,20.10
2019-02-19T06:01:27.657Z,25.40
2019-02-19T06:06:39.436Z,27.37
2019-02-19T06:11:53.095Z,25.70
2019-02-19T06:17:07.336Z,28.50
2019-02-19T06:22:17.163Z,22.20
2019-02-19T06:27:27.398Z,26.62
2019-02-19T06:32:36.420Z,25.20
2019-02-19T06:37:45.437Z,24.87
2019-02-19T06:43:02.763Z,23.30
2019-02-19T06:48:16.403Z,20.87
2019-02-19T06:53:26.397Z,17.03
2019-02-19T06:58:35.462Z,25.33
2019-02-19T07:04:00.241Z,23.00
2019-02-19T07:09:12.205Z,25.57
2019-02-19T07:14:24.776Z,26.80
2019-02-19T07:19:38.597Z,21.87
2019-02-19T07:24:52.988Z,22.47
2019-02-19T07:30:07.477Z,24.20
2019-02-19T07:35:18.581Z,26.35
2019-02-19T07:40:31.147Z,23.60
2019-02-19T07:45:42.339Z,25.67
2019-02-19T07:50:53.170Z,23.03
2019-02-19T07:56:06.693Z,26.00
2019-02-19T08:01:14.372Z,22.33
2019-02-19T08:06:28.871Z,23.20
2019-02-19T08:11:44.963Z,23.70
2019-02-19T08:17:02.059Z,18.07
2019-02-19T08:22:16.459Z,23.67
2019-02-19T08:27:29.924Z,16.95
2019-02-19T08:32:45.256Z,20.80
2019-02-19T08:37:55.665Z,23.73
2019-02-19T08:43:05.637Z,19.90
2019-02-19T08:48:18.313Z,25.62
2019-02-19T08:53:30.917Z,28.27
2019-02-19T08:58:46.085Z,25.67
2019-02-19T09:03:53.926Z,24.37
2019-02-19T09:09:05.616Z,26.00
2019-02-19T09:14:19.173Z,22.87
2019-02-19T09:19:28.101Z,27.10
2019-02-19T09:24:38.948Z,24.40
2019-02-19T09:29:49.766Z,24.00
2019-02-19T09:34:58.951Z,24.37
2019-02-19T09:40:08.355Z,21.63
2019-02-19T09:45:18.547Z,21.77
2019-02-19T09:50:31.237Z,23.20
2019-02-19T09:55:43.821Z,21.87
2019-02-19T10:00:51.268Z,20.73
2019-02-19T10:06:01.189Z,17.62
2019-02-19T10:11:12.867Z,20.30
2019-02-19T10:16:26.741Z,22.75
2019-02-19T10:21:36.576Z,19.97
2019-02-19T10:26:49.682Z,26.03
2019-02-19T10:31:59.908Z,19.57
2019-02-19T10:37:14.346Z,18.37
2019-02-19T10:42:25.735Z,23.92
2019-02-19T10:47:38.369Z,19.52
2019-02-19T10:52:51.875Z,17.63
2019-02-19T10:58:00.886Z,23.23
2019-02-19T11:03:08.621Z,21.73
2019-02-19T11:08:18.000Z,15.03
2019-02-19T11:13:30.636Z,17.45
2019-02-19T11:18:37.609Z,13.33
2019-02-19T11:23:54.868Z,14.65
2019-02-19T11:29:07.479Z,15.70
2019-02-19T11:34:18.290Z,13.63
2019-02-19T11:39:28.623Z,13.60
2019-02-19T11:44:42.278Z,9.53
2019-02-19T11:49:53.102Z,12.50
2019-02-19T11:55:03.929Z,10.70
2019-02-19T12:00:15.370Z,10.07
2019-02-19T12:05:25.610Z,11.23
2019-02-19T12:10:53.828Z,11.13
2019-02-19T12:16:06.438Z,11.60
2019-02-19T12:21:19.779Z,11.07
2019-02-19T12:26:29.725Z,11.18
2019-02-19T12:31:39.620Z,8.28
2019-02-19T12:36:52.258Z,10.48
2019-02-19T12:42:04.042Z,10.70
2019-02-19T12:47:16.645Z,8.77
2019-02-19T12:52:29.769Z,8.23
2019-02-19T12:57:45.100Z,9.67
2019-02-19T13:02:58.538Z,5.97
2019-02-19T13:08:13.153Z,8.38
2019-02-19T13:13:28.451Z,8.43
2019-02-19T13:18:39.339Z,11.33
2019-02-19T13:23:48.331Z,10.93
2019-02-19T13:28:56.555Z,7.63
2019-02-19T13:34:12.073Z,7.73
2019-02-19T13:39:22.853Z,8.00
2019-02-19T13:44:32.805Z,9.53
2019-02-19T13:49:41.421Z,9.47
2019-02-19T13:54:56.908Z,14.37
2019-02-19T14:00:13.991Z,9.83
2019-02-19T14:05:26.465Z,8.60
2019-02-19T14:10:40.017Z,7.40
2019-02-19T14:16:13.997Z,7.27
2019-02-19T14:21:53.134Z,7.75
2019-02-19T14:27:19.592Z,6.53
2019-02-19T14:32:45.918Z,7.03
2019-02-19T14:38:05.647Z,6.53
2019-02-19T14:43:42.691Z,7.22
2019-02-19T14:49:11.117Z,9.57
2019-02-19T14:54:33.669Z,8.10
2019-02-19T14:59:56.487Z,7.07
2019-02-19T15:05:36.773Z,7.40
2019-02-19T15:11:10.213Z,8.43
2019-02-19T15:16:55.012Z,5.97
2019-02-19T15:22:20.144Z,8.23
2019-02-19T15:27:50.873Z,6.13
2019-02-19T15:33:18.734Z,6.65
2019-02-19T15:38:33.160Z,6.23
2019-02-19T15:44:01.061Z,8.50
2019-02-19T15:49:32.389Z,6.77
2019-02-19T15:54:52.588Z,8.50
2019-02-19T16:00:18.436Z,7.33
2019-02-19T16:05:39.545Z,7.63
2019-02-19T16:11:01.127Z,9.07
2019-02-19T16:16:20.677Z,7.80
2019-02-19T16:21:46.330Z,10.15
2019-02-19T16:27:10.892Z,6.27
2019-02-19T16:32:42.393Z,10.80
2019-02-19T16:37:59.262Z,9.40
2019-02-19T16:43:36.773Z,5.93
2019-02-19T16:48:57.186Z,7.40
2019-02-19T16:54:21.992Z,12.73
2019-02-19T16:59:47.184Z,7.97
2019-02-19T17:05:18.152Z,7.70
2019-02-19T17:10:43.832Z,7.53
2019-02-19T17:16:10.770Z,12.37
2019-02-19T17:21:33.445Z,5.75
2019-02-19T17:27:04.599Z,12.13
2019-02-19T17:32:35.076Z,14.17
2019-02-19T17:38:14.204Z,14.57
2019-02-19T17:43:35.553Z,13.70
2019-02-19T17:49:02.055Z,12.73
2019-02-19T17:54:37.182Z,13.67
2019-02-19T18:00:02.712Z,10.70
2019-02-19T18:05:28.257Z,15.37
2019-02-19T18:10:54.794Z,14.67
2019-02-19T18:16:16.110Z,11.80
2019-02-19T18:21:24.390Z,12.10
2019-02-19T18:26:35.146Z,11.10
2019-02-19T18:31:43.355Z,13.30
2019-02-19T18:36:57.816Z,12.50
2019-02-19T18:42:09.453Z,16.27
2019-02-19T18:47:18.034Z,16.93
2019-02-19T18:52:25.420Z,14.10
2019-02-19T18:57:39.437Z,18.23
2019-02-19T19:02:51.332Z,15.83
2019-02-19T19:08:03.120Z,14.70
2019-02-19T19:13:15.783Z,13.10
2019-02-19T19:18:28.507Z,11.70
2019-02-19T19:23:38.942Z,13.33
2019-02-19T19:28:51.527Z,12.27
2019-02-19T19:34:04.271Z,11.17
2019-02-19T19:39:17.619Z,15.43
2019-02-19T19:44:30.243Z,11.63
2019-02-19T19:49:38.803Z,15.10
2019-02-19T19:54:50.557Z,19.67
2019-02-19T20:00:05.165Z,16.75
2019-02-19T20:05:17.982Z,15.90
2019-02-19T20:10:36.944Z,9.13
2019-02-19T20:15:48.748Z,11.80
2019-02-19T20:20:59.118Z,14.53
2019-02-19T20:26:10.416Z,12.67
2019-02-19T20:31:21.838Z,16.47
2019-02-19T20:37:32.879Z,12.67
2019-02-19T20:42:42.790Z,14.20
2019-02-19T20:47:51.538Z,12.23
2019-02-19T20:53:04.218Z,10.63
2019-02-19T20:58:19.698Z,14.20
2019-02-19T21:03:26.668Z,11.20
2019-02-19T21:08:36.581Z,16.93
2019-02-19T21:13:44.847Z,10.73
2019-02-19T21:18:56.580Z,8.68
2019-02-19T21:24:12.868Z,13.67
2019-02-19T21:29:26.436Z,12.47
2019-02-19T21:34:38.080Z,14.00
2019-02-19T21:39:45.688Z,14.37
2019-02-19T21:44:57.436Z,13.25
2019-02-19T21:50:08.431Z,19.33
2019-02-19T21:55:19.299Z,15.53
2019-02-19T22:00:32.101Z,15.00
2019-02-19T22:05:44.709Z,11.27
2019-02-19T22:10:58.183Z,12.10
2019-02-19T22:16:09.060Z,8.30
2019-02-19T22:21:34.726Z,13.25
2019-02-19T22:26:45.096Z,11.57
2019-02-19T22:31:58.599Z,15.83
2019-02-19T22:37:10.342Z,10.87
2019-02-19T22:42:23.534Z,11.73
2019-02-19T22:47:37.474Z,10.93
2019-02-19T22:52:50.023Z,13.03
2019-02-19T22:58:05.529Z,12.93
2019-02-19T23:03:14.646Z,10.70
2019-02-19T23:08:25.581Z,12.53
2019-02-19T23:13:34.454Z,13.90
2019-02-19T23:18:48.909Z,10.70
2019-02-19T23:23:57.322Z,10.00
2019-02-19T23:29:07.396Z,10.13
2019-02-19T23:34:20.955Z,14.58
2019-02-19T23:39:30.855Z,13.40
2019-02-19T23:44:38.002Z,10.47
2019-02-19T23:49:53.499Z,10.03
2019-02-19T23:55:03.405Z,15.93
